This is the latest recevied weather packets stored in our database for station/object KB4MOX. If no packets are shown the sender has not sent any weather packets the latest 10 day(s).
| Time | Temp. | Humidity | Pressure | Rain* | Wind** | Luminosity | Snow |
|---|---|---|---|---|---|---|---|
| 1788446021 | 31.11° C | 59% | 1018.6 hPa | 0 mm | - | 81 W/m² | - |
| 1788445716 | 30.56° C | 58% | 1018.6 hPa | 0 mm | - | 89 W/m² | - |
| 1788445412 | 30.56° C | 60% | 1018.7 hPa | 0 mm | - | 77 W/m² | - |
| 1788445108 | 30° C | 63% | 1018.8 hPa | 0 mm | - | 94 W/m² | - |
| 1788444804 | 30° C | 62% | 1018.6 hPa | 0 mm | - | 74 W/m² | - |
| 1788444504 | 29.44° C | 65% | 1018.7 hPa | 0 mm | - | 73 W/m² | - |
| 1788444199 | 29.44° C | 68% | 1018.7 hPa | 0 mm | - | 71 W/m² | - |
| 1788443895 | 28.89° C | 68% | 1018.6 hPa | 0 mm | - | 68 W/m² | - |
| 1788443590 | 28.89° C | 67% | 1018.5 hPa | 0 mm | - | 72 W/m² | - |
| 1788443288 | 28.33° C | 71% | 1018.6 hPa | 0 mm | - | 72 W/m² | - |
| 1788442984 | 28.33° C | 73% | 1018.5 hPa | 0 mm | - | 123 W/m² | - |
| 1788442681 | 27.78° C | 77% | 1018.9 hPa | 0 mm | - | 65 W/m² | - |
| 1788442378 | 27.78° C | 78% | 1018.7 hPa | 0 mm | - | 64 W/m² | - |
| 1788442078 | 27.78° C | 78% | 1018.8 hPa | 0 mm | - | 69 W/m² | - |
| 1788441773 | 27.22° C | 79% | 1018.8 hPa | 0 mm | - | 74 W/m² | - |
| 1788441468 | 26.67° C | 80% | 1019 hPa | 0 mm | - | 73 W/m² | - |
| 1788441167 | 26.67° C | 80% | 1018.9 hPa | 0 mm | - | 72 W/m² | - |
| 1788440862 | 26.67° C | 81% | 1019 hPa | 0 mm | - | 69 W/m² | - |
| 1788440557 | 26.11° C | 82% | 1019 hPa | 0 mm | - | 72 W/m² | - |
| 1788440255 | 26.11° C | 83% | 1019.2 hPa | 0 mm | - | 59 W/m² | - |
| 1788439951 | 25.56° C | 84% | 1019.1 hPa | 0 mm | - | 52 W/m² | - |
| 1788439650 | 25.56° C | 84% | 1019.1 hPa | 0 mm | - | 51 W/m² | - |
| 1788439346 | 25° C | 85% | 1019 hPa | 0 mm | - | 53 W/m² | - |
| 1788439044 | 25° C | 86% | 1019.2 hPa | 0 mm | - | 53 W/m² | - |
| 1788438743 | 24.44° C | 87% | 1019 hPa | 0 mm | - | 49 W/m² | - |
* Rain latest hour (hover to see other rain measurements)
** Current wind speed in m/s (hover to see current wind gust speed)